Time;durP1;ratioP1;P1;durP2;ratioP2;P2;SDS_P1;SDS_P2;PMS_P1;PMS_P2;Temp;Humidity;BMP_temperature;BMP_pressure;BME280_temperature;BME280_humidity;BME280_pressure;Samples;Min_cycle;Max_cycle;Signal;HPM_P1;HPM_P2
2022/09/25 00:00:48;;;;;;;;;;;;;;;8.64;100.00;98747.52;104969;1274;75394;-72
2022/09/25 00:03:34;;;;;;;;;;;;;;;8.65;100.00;98748.86;104933;1274;70920;-71
2022/09/25 00:06:08;;;;;;;;;;;;;;;8.67;100.00;98738.16;104938;1274;74680;-72
2022/09/25 00:08:35;;;;;;;;;;;;;;;8.67;100.00;98740.27;104953;1274;61269;-72
2022/09/25 00:11:28;;;;;;;;;;;;;;;8.68;100.00;98741.23;105068;1274;61296;-72
2022/09/25 00:13:57;;;;;;;;;;;;;;;8.70;100.00;98740.78;104471;1281;75498;-73
2022/09/25 00:16:25;;;;;;;;;;;;;;;8.71;100.00;98739.11;104470;1280;70369;-73
2022/09/25 00:21:37;;;;;;;;;;;;;;;8.75;100.00;98739.54;104447;1281;61305;-72
2022/09/25 00:24:06;;;;;;;;;;;;;;;8.77;100.00;98735.16;104523;1280;61276;-73
2022/09/25 00:26:35;;;;;;;;;;;;;;;8.80;100.00;98734.66;104512;1280;75473;-72
2022/09/25 00:29:02;;;;;;;;;;;;;;;8.81;100.00;98731.73;104489;1279;69476;-72
2022/09/25 00:31:29;;;;;;;;;;;;;;;8.83;100.00;98728.46;104473;1280;73931;-72
2022/09/25 00:33:57;;;;;;;;;;;;;;;8.83;100.00;98728.92;104520;1280;61249;-73
2022/09/25 00:36:24;;;;;;;;;;;;;;;8.84;100.00;98725.18;104517;1280;61391;-73
2022/09/25 00:38:50;;;;;;;;;;;;;;;8.84;100.00;98725.00;104297;1281;76398;-73
2022/09/25 00:41:19;;;;;;;;;;;;;;;8.85;100.00;98724.45;104491;1280;69179;-71
2022/09/25 00:43:50;;;;;;;;;;;;;;;8.85;100.00;98722.83;104494;1279;73855;-71
2022/09/25 00:46:25;;;;;;;;;;;;;;;8.85;100.00;98726.70;104473;1280;61399;-71
2022/09/25 00:49:03;;;;;;;;;;;;;;;8.86;100.00;98719.07;104459;1279;61400;-72
2022/09/25 00:51:53;;;;;;;;;;;;;;;8.87;100.00;98718.83;104780;1274;76218;-72
2022/09/25 00:54:22;;;;;;;;;;;;;;;8.86;100.00;98712.79;104517;1277;69996;-71
2022/09/25 00:56:51;;;;;;;;;;;;;;;8.87;100.00;98710.49;104621;1277;73402;-72
2022/09/25 00:59:20;;;;;;;;;;;;;;;8.85;100.00;98711.98;104528;1277;61427;-73
2022/09/25 01:01:46;;;;;;;;;;;;;;;8.84;100.00;98709.38;104538;1277;61870;-73
2022/09/25 01:04:13;;;;;;;;;;;;;;;8.84;100.00;98712.96;104528;1277;61241;-72
2022/09/25 01:06:40;;;;;;;;;;;;;;;8.83;100.00;98710.40;104538;1277;69405;-72
2022/09/25 01:09:06;;;;;;;;;;;;;;;8.80;100.00;98707.36;104522;1277;61292;-72
2022/09/25 01:11:33;;;;;;;;;;;;;;;8.78;100.00;98706.41;104498;1277;61415;-72
2022/09/25 01:14:01;;;;;;;;;;;;;;;8.77;100.00;98703.33;104506;1277;61449;-73
2022/09/25 01:16:35;;;;;;;;;;;;;;;8.75;100.00;98707.19;104373;1278;76213;-73
2022/09/25 01:19:14;;;;;;;;;;;;;;;8.73;100.00;98703.02;104539;1277;70426;-73
2022/09/25 01:22:04;;;;;;;;;;;;;;;8.71;100.00;98700.30;104556;1277;73474;-71
2022/09/25 01:24:33;;;;;;;;;;;;;;;8.71;100.00;98700.33;104491;1277;61539;-72
2022/09/25 01:27:02;;;;;;;;;;;;;;;8.70;100.00;98697.00;104598;1277;61414;-71
2022/09/25 01:29:40;;;;;;;;;;;;;;;8.69;100.00;98696.01;104552;1277;75917;-73
2022/09/25 01:32:23;;;;;;;;;;;;;;;8.68;100.00;98696.95;104732;1274;70469;-72
2022/09/25 01:34:55;;;;;;;;;;;;;;;8.67;100.00;98696.52;104937;1274;74381;-73
2022/09/25 01:37:32;;;;;;;;;;;;;;;8.65;100.00;98695.73;104919;1274;61449;-72
2022/09/25 01:40:07;;;;;;;;;;;;;;;8.62;100.00;98701.25;104862;1274;61412;-73
2022/09/25 01:42:38;;;;;;;;;;;;;;;8.60;100.00;98701.41;105004;1274;76026;-72
2022/09/25 01:45:06;;;;;;;;;;;;;;;8.57;100.00;98697.50;105018;1273;68659;-72
2022/09/25 01:47:36;;;;;;;;;;;;;;;8.53;100.00;98698.43;104928;1274;74458;-72
2022/09/25 01:50:08;;;;;;;;;;;;;;;8.51;100.00;98696.83;104925;1274;61279;-72
2022/09/25 01:52:45;;;;;;;;;;;;;;;8.49;100.00;98698.35;104951;1274;61790;-73
2022/09/25 01:55:14;;;;;;;;;;;;;;;8.46;100.00;98691.98;104918;1274;76385;-73
2022/09/25 01:57:43;;;;;;;;;;;;;;;8.44;100.00;98693.33;104971;1274;69229;-73
2022/09/25 02:00:31;;;;;;;;;;;;;;;8.42;100.00;98694.02;104926;1274;74171;-72
2022/09/25 02:03:07;;;;;;;;;;;;;;;8.38;100.00;98694.77;104921;1274;61516;-72
2022/09/25 02:05:38;;;;;;;;;;;;;;;8.36;100.00;98698.80;104942;1274;61365;-73
2022/09/25 02:08:09;;;;;;;;;;;;;;;8.34;100.00;98703.69;104937;1273;76360;-72
2022/09/25 02:10:40;;;;;;;;;;;;;;;8.32;100.00;98705.02;104936;1273;70556;-72
2022/09/25 02:13:12;;;;;;;;;;;;;;;8.31;100.00;98702.06;104997;1274;73459;-71
2022/09/25 02:15:41;;;;;;;;;;;;;;;8.32;100.00;98703.80;104927;1274;61272;-73
2022/09/25 02:21:13;;;;;;;;;;;;;;;8.34;100.00;98703.48;104926;1273;75102;-72
2022/09/25 02:23:39;;;;;;;;;;;;;;;8.35;100.00;98696.91;104985;1274;69215;-72
2022/09/25 02:26:08;;;;;;;;;;;;;;;8.36;100.00;98702.33;104928;1273;61484;-72
2022/09/25 02:28:35;;;;;;;;;;;;;;;8.37;100.00;98697.85;104952;1274;61268;-72
2022/09/25 02:31:03;;;;;;;;;;;;;;;8.37;100.00;98702.78;104946;1274;62073;-72
2022/09/25 02:33:30;;;;;;;;;;;;;;;8.38;100.00;98703.27;104928;1273;76028;-72
2022/09/25 02:35:58;;;;;;;;;;;;;;;8.38;100.00;98704.14;104950;1273;61199;-72
2022/09/25 02:38:25;;;;;;;;;;;;;;;8.39;100.00;98702.67;104945;1274;73032;-72
2022/09/25 02:40:55;;;;;;;;;;;;;;;8.40;100.00;98701.77;104949;1274;61430;-72
2022/09/25 02:43:21;;;;;;;;;;;;;;;8.40;100.00;98693.60;104915;1273;61355;-73
2022/09/25 02:46:03;;;;;;;;;;;;;;;8.42;100.00;98693.33;104931;1273;61334;-72
2022/09/25 02:48:36;;;;;;;;;;;;;;;8.43;100.00;98692.90;105031;1273;69385;-73
2022/09/25 02:51:15;;;;;;;;;;;;;;;8.45;100.00;98694.03;104951;1273;74145;-74
2022/09/25 02:53:44;;;;;;;;;;;;;;;8.45;100.00;98687.27;104943;1273;61225;-73
2022/09/25 02:56:13;;;;;;;;;;;;;;;8.47;100.00;98685.23;105151;1273;61350;-73
2022/09/25 02:58:43;;;;;;;;;;;;;;;8.47;100.00;98679.69;105059;1273;75196;-72
2022/09/25 03:01:12;;;;;;;;;;;;;;;8.48;100.00;98677.70;104922;1273;69356;-73
2022/09/25 03:03:40;;;;;;;;;;;;;;;8.48;100.00;98676.67;104915;1273;73561;-73
2022/09/25 03:06:07;;;;;;;;;;;;;;;8.47;100.00;98674.23;104961;1273;62113;-72
2022/09/25 03:08:36;;;;;;;;;;;;;;;8.47;100.00;98675.65;104995;1273;61203;-72
2022/09/25 03:11:14;;;;;;;;;;;;;;;8.45;100.00;98669.41;105010;1273;74988;-72
2022/09/25 03:13:41;;;;;;;;;;;;;;;8.44;100.00;98669.13;104913;1273;70436;-72
2022/09/25 03:16:07;;;;;;;;;;;;;;;8.42;100.00;98662.32;104954;1273;73501;-72
2022/09/25 03:18:35;;;;;;;;;;;;;;;8.40;100.00;98666.16;104728;1274;61315;-73
2022/09/25 03:21:03;;;;;;;;;;;;;;;8.38;100.00;98664.84;104967;1273;61236;-72
2022/09/25 03:23:30;;;;;;;;;;;;;;;8.36;100.00;98670.77;105000;1273;75347;-71
2022/09/25 03:25:57;;;;;;;;;;;;;;;8.35;100.00;98675.27;104938;1273;68491;-72
2022/09/25 03:28:24;;;;;;;;;;;;;;;8.34;100.00;98675.91;104808;1273;72989;-72
2022/09/25 03:30:54;;;;;;;;;;;;;;;8.32;100.00;98673.17;104930;1273;61333;-72
2022/09/25 03:33:21;;;;;;;;;;;;;;;8.32;100.00;98671.77;104925;1273;61272;-71
2022/09/25 03:35:47;;;;;;;;;;;;;;;8.33;100.00;98670.48;104933;1273;61304;-72
2022/09/25 03:38:14;;;;;;;;;;;;;;;8.34;100.00;98669.01;104961;1273;69041;-71
2022/09/25 03:40:40;;;;;;;;;;;;;;;8.34;100.00;98666.14;104972;1273;61392;-72
2022/09/25 03:43:07;;;;;;;;;;;;;;;8.35;100.00;98665.76;104952;1273;61408;-71
2022/09/25 03:45:33;;;;;;;;;;;;;;;8.35;100.00;98663.40;104813;1273;61866;-72
2022/09/25 03:48:00;;;;;;;;;;;;;;;8.36;100.00;98662.84;104921;1273;61305;-71
2022/09/25 03:50:26;;;;;;;;;;;;;;;8.37;100.00;98659.61;104933;1273;61286;-71
2022/09/25 03:52:53;;;;;;;;;;;;;;;8.38;100.00;98658.14;104916;1273;61448;-72
2022/09/25 03:55:21;;;;;;;;;;;;;;;8.39;100.00;98659.71;104936;1273;61292;-72
2022/09/25 03:57:47;;;;;;;;;;;;;;;8.39;100.00;98659.65;104902;1273;61330;-71
2022/09/25 04:00:15;;;;;;;;;;;;;;;8.40;100.00;98664.40;104918;1273;72644;-72
2022/09/25 04:02:42;;;;;;;;;;;;;;;8.41;100.00;98661.67;104936;1273;70392;-72
2022/09/25 04:05:09;;;;;;;;;;;;;;;8.41;100.00;98659.89;104958;1273;74444;-73
2022/09/25 04:07:36;;;;;;;;;;;;;;;8.42;100.00;98658.98;104927;1273;61334;-72
2022/09/25 04:10:02;;;;;;;;;;;;;;;8.41;100.00;98657.08;104947;1273;61269;-72
2022/09/25 04:12:29;;;;;;;;;;;;;;;8.43;100.00;98661.78;104942;1273;75288;-72
2022/09/25 04:14:55;;;;;;;;;;;;;;;8.42;100.00;98661.61;104950;1273;61246;-73
2022/09/25 04:17:22;;;;;;;;;;;;;;;8.43;100.00;98658.39;104932;1273;73294;-71
2022/09/25 04:19:49;;;;;;;;;;;;;;;8.43;100.00;98659.80;104965;1273;61377;-73
2022/09/25 04:22:15;;;;;;;;;;;;;;;8.43;100.00;98660.13;104967;1273;61346;-73
2022/09/25 04:24:48;;;;;;;;;;;;;;;8.44;100.00;98664.54;104904;1273;62586;-73
2022/09/25 04:27:20;;;;;;;;;;;;;;;8.44;100.00;98662.20;104913;1273;70791;-71
2022/09/25 04:29:47;;;;;;;;;;;;;;;8.46;100.00;98663.35;104937;1273;73380;-72
2022/09/25 04:35:00;;;;;;;;;;;;;;;8.48;100.00;98664.28;104927;1273;61868;-72
2022/09/25 04:37:26;;;;;;;;;;;;;;;8.48;100.00;98664.62;104985;1273;74173;-72
2022/09/25 04:39:53;;;;;;;;;;;;;;;8.49;100.00;98664.35;104929;1273;68146;-72
2022/09/25 04:42:26;;;;;;;;;;;;;;;8.50;100.00;98665.70;104935;1273;74242;-72
2022/09/25 04:44:53;;;;;;;;;;;;;;;8.52;100.00;98670.53;104935;1273;61398;-72
2022/09/25 04:47:21;;;;;;;;;;;;;;;8.54;100.00;98667.73;104949;1273;61612;-72
2022/09/25 04:49:47;;;;;;;;;;;;;;;8.55;100.00;98666.95;104952;1275;74384;-72
2022/09/25 04:52:15;;;;;;;;;;;;;;;8.58;100.00;98668.73;104940;1273;61298;-72
2022/09/25 04:54:41;;;;;;;;;;;;;;;8.60;100.00;98665.77;104936;1274;72940;-72
2022/09/25 04:57:10;;;;;;;;;;;;;;;8.62;100.00;98659.83;104946;1274;61209;-72
2022/09/25 04:59:37;;;;;;;;;;;;;;;8.65;100.00;98667.08;104819;1274;61613;-72
2022/09/25 05:02:03;;;;;;;;;;;;;;;8.67;100.00;98668.36;104916;1274;75227;-72
2022/09/25 05:04:30;;;;;;;;;;;;;;;8.69;100.00;98668.55;104893;1274;69449;-72
2022/09/25 05:06:56;;;;;;;;;;;;;;;8.72;100.00;98669.25;104929;1273;61256;-69
2022/09/25 05:09:23;;;;;;;;;;;;;;;8.75;100.00;98669.24;104924;1273;61316;-73
2022/09/25 05:11:49;;;;;;;;;;;;;;;8.78;100.00;98673.81;104932;1274;61374;-73
2022/09/25 05:14:16;;;;;;;;;;;;;;;8.83;100.00;98670.73;104885;1273;61398;-72
2022/09/25 05:16:44;;;;;;;;;;;;;;;8.87;100.00;98668.15;104928;1273;69147;-72
2022/09/25 05:19:12;;;;;;;;;;;;;;;8.92;100.00;98668.34;104903;1273;73647;-72
2022/09/25 05:21:38;;;;;;;;;;;;;;;8.97;100.00;98667.66;104915;1273;61360;-71
2022/09/25 05:24:07;;;;;;;;;;;;;;;9.03;100.00;98674.00;104957;1273;61348;-72
2022/09/25 05:26:36;;;;;;;;;;;;;;;9.10;100.00;98666.29;104914;1273;76712;-72
2022/09/25 05:29:03;;;;;;;;;;;;;;;9.16;100.00;98667.08;104912;1273;70080;-72
2022/09/25 05:31:31;;;;;;;;;;;;;;;9.25;100.00;98663.68;104972;1273;73628;-72
2022/09/25 05:33:58;;;;;;;;;;;;;;;9.32;100.00;98666.05;104947;1273;61415;-72
2022/09/25 05:36:24;;;;;;;;;;;;;;;9.38;100.00;98675.40;104465;1274;61751;-74
2022/09/25 05:38:51;;;;;;;;;;;;;;;9.42;100.00;98677.00;104970;1273;61375;-72
2022/09/25 05:41:18;;;;;;;;;;;;;;;9.46;100.00;98678.55;105071;1273;68167;-72
2022/09/25 05:43:49;;;;;;;;;;;;;;;9.50;100.00;98676.71;104941;1273;61305;-75
2022/09/25 05:46:15;;;;;;;;;;;;;;;9.51;100.00;98676.64;105000;1273;61356;-73
2022/09/25 05:48:42;;;;;;;;;;;;;;;9.52;100.00;98679.55;104960;1273;61283;-73
2022/09/25 05:51:08;;;;;;;;;;;;;;;9.54;100.00;98679.97;104954;1273;61283;-74
2022/09/25 05:53:35;;;;;;;;;;;;;;;9.56;100.00;98680.70;104916;1273;61312;-72
2022/09/25 05:56:04;;;;;;;;;;;;;;;9.59;100.00;98685.48;104947;1273;73388;-71
2022/09/25 05:58:32;;;;;;;;;;;;;;;9.62;100.00;98679.40;105022;1273;61342;-72
2022/09/25 06:01:00;;;;;;;;;;;;;;;9.66;100.00;98680.60;104948;1273;61867;-71
2022/09/25 06:03:29;;;;;;;;;;;;;;;9.69;100.00;98674.88;104936;1272;75162;-73
2022/09/25 06:05:57;;;;;;;;;;;;;;;9.76;100.00;98672.44;104942;1273;69388;-73
2022/09/25 06:08:24;;;;;;;;;;;;;;;9.87;100.00;98674.88;104929;1273;72443;-73
2022/09/25 06:10:52;;;;;;;;;;;;;;;10.01;100.00;98670.35;104880;1273;61370;-74
2022/09/25 06:13:20;;;;;;;;;;;;;;;10.16;100.00;98671.44;104845;1274;61269;-73
2022/09/25 06:15:51;;;;;;;;;;;;;;;10.31;100.00;98666.84;104907;1273;76500;-73
2022/09/25 06:18:19;;;;;;;;;;;;;;;10.47;100.00;98670.34;104827;1274;70466;-72
2022/09/25 06:20:48;;;;;;;;;;;;;;;10.62;100.00;98671.05;104933;1273;73362;-73
2022/09/25 06:23:15;;;;;;;;;;;;;;;10.75;100.00;98666.90;104935;1273;61335;-73
2022/09/25 06:25:41;;;;;;;;;;;;;;;10.87;100.00;98669.24;104913;1273;61296;-72
2022/09/25 06:28:09;;;;;;;;;;;;;;;11.01;100.00;98666.80;104927;1273;75333;-73
2022/09/25 06:30:35;;;;;;;;;;;;;;;11.11;100.00;98666.34;104897;1274;70012;-73
2022/09/25 06:33:08;;;;;;;;;;;;;;;11.17;100.00;98664.11;104926;1273;73687;-73
2022/09/25 06:35:35;;;;;;;;;;;;;;;11.20;100.00;98659.48;104768;1273;61300;-73
2022/09/25 06:38:03;;;;;;;;;;;;;;;11.18;100.00;98662.98;104904;1273;62082;-72
2022/09/25 06:40:30;;;;;;;;;;;;;;;11.15;100.00;98661.95;104914;1272;76727;-73
2022/09/25 06:42:57;;;;;;;;;;;;;;;11.12;100.00;98663.27;104921;1273;69764;-73
2022/09/25 06:45:25;;;;;;;;;;;;;;;11.13;100.00;98665.50;104901;1273;74470;-72
2022/09/25 06:47:56;;;;;;;;;;;;;;;11.14;100.00;98663.86;105041;1273;61381;-73
2022/09/25 06:50:24;;;;;;;;;;;;;;;11.12;100.00;98665.20;104966;1273;61325;-73
2022/09/25 06:52:51;;;;;;;;;;;;;;;11.09;100.00;98664.00;104959;1273;76524;-75
2022/09/25 06:55:17;;;;;;;;;;;;;;;11.07;100.00;98664.40;104944;1273;61350;-72
2022/09/25 06:57:44;;;;;;;;;;;;;;;11.02;100.00;98664.53;104938;1273;61500;-72
2022/09/25 07:00:11;;;;;;;;;;;;;;;11.00;100.00;98669.67;104915;1273;61324;-78
2022/09/25 07:05:23;;;;;;;;;;;;;;;10.99;100.00;98672.21;104871;1273;76716;-71
2022/09/25 07:07:49;;;;;;;;;;;;;;;11.00;100.00;98671.14;104964;1273;61756;-71
2022/09/25 07:10:16;;;;;;;;;;;;;;;11.02;100.00;98673.13;104923;1273;61271;-72
2022/09/25 07:12:42;;;;;;;;;;;;;;;11.07;100.00;98675.06;104919;1273;61311;-71
2022/09/25 07:15:10;;;;;;;;;;;;;;;11.17;100.00;98673.56;104960;1273;61305;-72
2022/09/25 07:17:40;;;;;;;;;;;;;;;11.30;100.00;98671.37;104956;1273;75177;-72
2022/09/25 07:20:07;;;;;;;;;;;;;;;11.43;100.00;98670.77;104951;1273;69640;-72
2022/09/25 07:22:34;;;;;;;;;;;;;;;11.53;100.00;98673.92;104946;1273;74417;-72
2022/09/25 07:25:01;;;;;;;;;;;;;;;11.59;100.00;98676.44;104933;1273;61268;-72
2022/09/25 07:27:28;;;;;;;;;;;;;;;11.59;100.00;98674.66;104924;1273;61378;-72
2022/09/25 07:29:55;;;;;;;;;;;;;;;11.56;100.00;98674.92;104943;1273;75198;-72
2022/09/25 07:32:21;;;;;;;;;;;;;;;11.50;100.00;98671.24;104949;1273;69170;-72
2022/09/25 07:34:49;;;;;;;;;;;;;;;11.43;100.00;98674.95;104671;1275;61304;-72
2022/09/25 07:37:17;;;;;;;;;;;;;;;11.39;100.00;98674.75;104966;1273;61275;-72
2022/09/25 07:39:43;;;;;;;;;;;;;;;11.37;100.00;98672.44;104968;1273;61742;-73
2022/09/25 07:42:09;;;;;;;;;;;;;;;11.36;100.00;98669.98;104956;1273;74841;-73
2022/09/25 07:44:36;;;;;;;;;;;;;;;11.43;100.00;98662.36;104923;1273;61279;-73
2022/09/25 07:47:04;;;;;;;;;;;;;;;11.55;100.00;98666.60;105072;1273;73536;-70
2022/09/25 07:49:30;;;;;;;;;;;;;;;11.68;100.00;98664.04;104970;1273;61359;-72
2022/09/25 07:51:58;;;;;;;;;;;;;;;11.77;100.00;98663.15;104981;1273;61454;-71
2022/09/25 07:54:24;;;;;;;;;;;;;;;11.81;100.00;98660.52;104982;1273;75985;-72
2022/09/25 07:56:51;;;;;;;;;;;;;;;11.81;100.00;98659.42;104899;1273;61287;-71
2022/09/25 07:59:17;;;;;;;;;;;;;;;11.81;100.00;98655.91;104922;1273;62155;-72
2022/09/25 08:01:44;;;;;;;;;;;;;;;11.79;100.00;98652.88;104890;1273;61368;-72
2022/09/25 08:04:10;;;;;;;;;;;;;;;11.79;100.00;98651.42;104944;1273;61391;-72
2022/09/25 08:06:37;;;;;;;;;;;;;;;11.78;100.00;98644.71;104964;1273;61370;-72
2022/09/25 08:09:04;;;;;;;;;;;;;;;11.80;100.00;98644.62;104978;1272;61178;-72
2022/09/25 08:11:32;;;;;;;;;;;;;;;11.87;100.00;98642.64;104952;1273;61391;-72
2022/09/25 08:13:59;;;;;;;;;;;;;;;11.96;100.00;98638.52;104990;1273;61279;-72
2022/09/25 08:16:25;;;;;;;;;;;;;;;12.03;100.00;98637.64;104923;1273;61326;-73
2022/09/25 08:18:52;;;;;;;;;;;;;;;12.08;100.00;98634.42;104987;1273;61406;-70
2022/09/25 08:21:19;;;;;;;;;;;;;;;12.11;100.00;98629.36;104981;1273;69975;-72
2022/09/25 08:23:50;;;;;;;;;;;;;;;12.16;100.00;98634.89;104982;1273;73195;-73
2022/09/25 08:26:17;;;;;;;;;;;;;;;12.18;100.00;98635.07;105089;1272;61327;-72
2022/09/25 08:28:44;;;;;;;;;;;;;;;12.19;100.00;98637.81;104940;1273;61226;-72
2022/09/25 08:31:13;;;;;;;;;;;;;;;12.20;100.00;98642.24;105001;1272;61223;-72
2022/09/25 08:33:48;;;;;;;;;;;;;;;12.21;100.00;98641.26;104935;1273;70556;-72
2022/09/25 08:36:15;;;;;;;;;;;;;;;12.22;100.00;98640.49;104949;1273;73565;-73
2022/09/25 08:38:42;;;;;;;;;;;;;;;12.26;100.00;98632.98;104959;1272;61378;-72
2022/09/25 08:41:30;;;;;;;;;;;;;;;12.31;100.00;98631.71;105010;1273;61453;-69
2022/09/25 08:44:05;;;;;;;;;;;;;;;12.32;100.00;98631.99;105083;1273;75233;-71
2022/09/25 08:49:25;;;;;;;;;;;;;;;12.39;100.00;98627.19;104958;1273;74534;-71
2022/09/25 08:51:53;;;;;;;;;;;;;;;12.45;100.00;98625.27;104915;1273;61388;-72
2022/09/25 08:54:25;;;;;;;;;;;;;;;12.52;100.00;98618.23;104977;1273;61460;-70
2022/09/25 08:56:54;;;;;;;;;;;;;;;12.61;100.00;98617.92;104961;1273;76418;-72
2022/09/25 08:59:29;;;;;;;;;;;;;;;12.69;100.00;98619.89;104946;1273;68009;-72
2022/09/25 09:01:58;;;;;;;;;;;;;;;12.83;100.00;98616.67;104992;1273;73806;-73
2022/09/25 09:04:25;;;;;;;;;;;;;;;12.96;100.00;98614.15;105043;1273;61271;-73
2022/09/25 09:06:55;;;;;;;;;;;;;;;13.06;100.00;98612.38;104937;1273;61555;-71
2022/09/25 09:09:40;;;;;;;;;;;;;;;13.15;100.00;98611.84;104944;1273;76311;-71
2022/09/25 09:12:12;;;;;;;;;;;;;;;13.31;100.00;98608.52;104956;1273;70407;-71
2022/09/25 09:14:47;;;;;;;;;;;;;;;13.52;100.00;98607.36;104884;1273;72927;-70
2022/09/25 09:17:22;;;;;;;;;;;;;;;13.70;100.00;98611.33;104954;1273;61406;-72
2022/09/25 09:20:01;;;;;;;;;;;;;;;13.79;100.00;98612.29;104988;1273;61263;-73
2022/09/25 09:22:37;;;;;;;;;;;;;;;13.82;100.00;98614.16;104895;1273;76392;-72
2022/09/25 09:25:08;;;;;;;;;;;;;;;13.83;100.00;98611.63;105055;1273;67656;-74
2022/09/25 09:27:35;;;;;;;;;;;;;;;13.80;100.00;98609.36;105080;1273;72350;-73
2022/09/25 09:30:19;;;;;;;;;;;;;;;13.86;100.00;98605.10;104957;1273;61316;-74
2022/09/25 09:33:10;;;;;;;;;;;;;;;14.01;100.00;98605.23;104942;1273;61340;-74
2022/09/25 09:35:37;;;;;;;;;;;;;;;14.17;100.00;98604.40;104963;1273;74697;-74
2022/09/25 09:38:09;;;;;;;;;;;;;;;14.34;100.00;98603.92;104928;1273;69901;-73
2022/09/25 09:40:51;;;;;;;;;;;;;;;14.55;100.00;98605.65;104953;1273;74571;-73
2022/09/25 09:43:21;;;;;;;;;;;;;;;14.70;100.00;98599.34;104696;1273;61334;-74
2022/09/25 09:46:03;;;;;;;;;;;;;;;14.84;100.00;98596.98;104966;1273;61354;-72
2022/09/25 09:48:38;;;;;;;;;;;;;;;14.91;100.00;98598.65;104938;1273;75959;-73
2022/09/25 09:51:14;;;;;;;;;;;;;;;15.08;100.00;98596.03;105082;1273;67962;-72
2022/09/25 09:53:51;;;;;;;;;;;;;;;15.22;100.00;98596.70;104915;1273;74448;-73
2022/09/25 09:56:21;;;;;;;;;;;;;;;15.46;100.00;98594.32;104965;1273;61290;-72
2022/09/25 09:58:56;;;;;;;;;;;;;;;15.59;100.00;98596.37;104927;1273;61601;-72
2022/09/25 10:01:24;;;;;;;;;;;;;;;15.69;100.00;98588.95;104886;1273;76283;-73
2022/09/25 10:03:57;;;;;;;;;;;;;;;15.79;100.00;98588.77;104857;1273;69246;-72
2022/09/25 10:06:26;;;;;;;;;;;;;;;15.90;100.00;98589.73;104919;1273;73287;-73
2022/09/25 10:08:53;;;;;;;;;;;;;;;16.04;100.00;98589.20;104989;1273;61360;-72
2022/09/25 10:11:19;;;;;;;;;;;;;;;16.08;100.00;98584.85;104900;1273;62876;-72
2022/09/25 10:13:47;;;;;;;;;;;;;;;16.09;100.00;98577.63;104946;1273;75343;-73
2022/09/25 10:16:19;;;;;;;;;;;;;;;16.05;100.00;98576.41;105032;1273;66579;-72
2022/09/25 10:18:48;;;;;;;;;;;;;;;15.94;100.00;98572.98;104933;1273;73422;-73
2022/09/25 10:21:20;;;;;;;;;;;;;;;15.89;100.00;98570.61;104916;1273;61207;-72
2022/09/25 10:23:48;;;;;;;;;;;;;;;15.98;100.00;98570.44;104919;1273;62134;-73
2022/09/25 10:26:21;;;;;;;;;;;;;;;16.12;100.00;98568.20;104946;1273;76394;-73
2022/09/25 10:28:47;;;;;;;;;;;;;;;16.31;100.00;98567.24;104917;1273;70125;-73
2022/09/25 10:31:14;;;;;;;;;;;;;;;16.40;100.00;98569.59;104967;1273;61388;-73
2022/09/25 10:33:41;;;;;;;;;;;;;;;16.52;100.00;98569.16;104893;1273;61260;-73
2022/09/25 10:36:07;;;;;;;;;;;;;;;16.76;100.00;98569.27;104917;1275;61437;-72
2022/09/25 10:38:42;;;;;;;;;;;;;;;16.93;100.00;98568.10;105344;1273;61376;-73
2022/09/25 10:41:13;;;;;;;;;;;;;;;17.00;100.00;98568.84;105171;1273;70025;-73
2022/09/25 10:43:55;;;;;;;;;;;;;;;17.04;100.00;98565.98;104907;1275;73322;-72
2022/09/25 10:50:09;;;;;;;;;;;;;;;17.11;100.00;98561.84;104885;1274;62045;-71
2022/09/25 10:52:04;;;;;;;;;;;;;;;17.25;100.00;98557.08;104901;1274;76529;-72
2022/09/25 10:54:31;;;;;;;;;;;;;;;17.33;100.00;98553.67;104951;1274;69559;-72
2022/09/25 10:56:58;;;;;;;;;;;;;;;17.40;100.00;98552.45;104819;1276;74391;-71
2022/09/25 10:59:26;;;;;;;;;;;;;;;17.43;100.00;98553.08;105035;1274;62904;-74
2022/09/25 11:01:54;;;;;;;;;;;;;;;17.34;100.00;98556.48;104939;1273;61365;-73
2022/09/25 11:04:30;;;;;;;;;;;;;;;17.28;100.00;98561.44;104953;1273;76412;-73
2022/09/25 11:07:00;;;;;;;;;;;;;;;17.23;100.00;98559.44;104934;1275;69257;-73
2022/09/25 11:09:28;;;;;;;;;;;;;;;17.07;100.00;98563.54;104873;1274;73858;-74
2022/09/25 11:12:12;;;;;;;;;;;;;;;17.04;100.00;98562.14;104947;1273;61654;-74
2022/09/25 11:14:45;;;;;;;;;;;;;;;17.11;100.00;98560.60;104995;1273;61387;-73
2022/09/25 11:17:32;;;;;;;;;;;;;;;17.19;100.00;98559.10;105162;1273;73548;-72
2022/09/25 11:20:15;;;;;;;;;;;;;;;17.18;100.00;98569.27;105011;1273;68873;-76
2022/09/25 11:23:12;;;;;;;;;;;;;;;17.13;100.00;98568.14;105120;1273;73153;-73
2022/09/25 11:25:56;;;;;;;;;;;;;;;17.10;100.00;98559.62;104599;1279;61285;-74
2022/09/25 11:28:33;;;;;;;;;;;;;;;17.20;100.00;98551.41;104555;1279;61269;-74
2022/09/25 11:31:06;;;;;;;;;;;;;;;17.33;100.00;98547.21;104523;1279;74896;-73
2022/09/25 11:33:33;;;;;;;;;;;;;;;17.42;100.00;98542.14;104548;1280;70494;-73
2022/09/25 11:36:04;;;;;;;;;;;;;;;17.51;100.00;98540.00;104502;1280;61297;-73
2022/09/25 11:41:41;;;;;;;;;;;;;;;17.74;100.00;98535.32;104653;1280;61278;-73
2022/09/25 11:44:18;;;;;;;;;;;;;;;17.88;100.00;98537.35;104679;1279;76847;-75
2022/09/25 11:47:03;;;;;;;;;;;;;;;18.09;100.00;98538.36;104477;1280;69987;-77
2022/09/25 11:49:33;;;;;;;;;;;;;;;18.18;100.00;98530.92;104640;1278;71804;-75
2022/09/25 11:52:41;;;;;;;;;;;;;;;18.19;100.00;98529.48;104784;1279;61313;-76
2022/09/25 11:55:33;;;;;;;;;;;;;;;18.27;100.00;98525.42;104609;1280;61719;-75
2022/09/25 11:58:19;;;;;;;;;;;;;;;18.37;100.00;98518.05;103945;1282;73619;-75
2022/09/25 12:00:59;;;;;;;;;;;;;;;18.39;100.00;98516.13;104166;1282;70315;-74
2022/09/25 12:03:39;;;;;;;;;;;;;;;18.34;100.00;98509.64;104446;1278;72836;-75
2022/09/25 12:06:13;;;;;;;;;;;;;;;18.22;100.00;98506.22;104544;1278;61312;-76
2022/09/25 12:08:56;;;;;;;;;;;;;;;18.19;100.00;98503.76;104573;1279;61339;-75
2022/09/25 12:11:42;;;;;;;;;;;;;;;18.09;100.00;98503.60;104636;1279;76460;-75
2022/09/25 12:14:27;;;;;;;;;;;;;;;18.09;100.00;98491.02;104548;1278;70487;-74
2022/09/25 12:17:20;;;;;;;;;;;;;;;18.06;100.00;98482.39;104533;1278;73892;-74
2022/09/25 12:19:50;;;;;;;;;;;;;;;18.03;100.00;98482.48;104311;1283;61247;-74
2022/09/25 12:22:29;;;;;;;;;;;;;;;18.04;100.00;98478.98;104353;1282;61367;-74
2022/09/25 12:25:01;;;;;;;;;;;;;;;18.08;100.00;98476.94;104315;1283;75595;-74
2022/09/25 12:27:39;;;;;;;;;;;;;;;18.07;100.00;98474.95;104358;1283;69435;-74
2022/09/25 12:30:18;;;;;;;;;;;;;;;18.08;100.00;98474.64;104520;1280;73815;-73
2022/09/25 12:32:45;;;;;;;;;;;;;;;18.12;100.00;98477.60;104537;1278;61288;-74
2022/09/25 12:35:30;;;;;;;;;;;;;;;18.09;100.00;98486.02;104524;1280;61467;-74
2022/09/25 12:38:04;;;;;;;;;;;;;;;18.03;100.00;98485.61;104514;1280;76368;-73
2022/09/25 12:40:37;;;;;;;;;;;;;;;17.97;100.00;98488.02;104541;1278;70042;-74
2022/09/25 12:43:04;;;;;;;;;;;;;;;17.92;100.00;98485.27;104534;1277;74374;-75
2022/09/25 12:45:35;;;;;;;;;;;;;;;17.92;100.00;98489.01;104590;1280;61442;-75
2022/09/25 12:48:02;;;;;;;;;;;;;;;17.92;100.00;98484.56;104539;1280;61750;-75
2022/09/25 12:50:32;;;;;;;;;;;;;;;17.88;100.00;98482.11;104486;1280;76253;-74
2022/09/25 12:53:04;;;;;;;;;;;;;;;17.81;100.00;98483.45;104507;1280;69517;-75
2022/09/25 12:55:34;;;;;;;;;;;;;;;17.77;100.00;98486.79;104499;1280;74625;-75
2022/09/25 12:58:10;;;;;;;;;;;;;;;17.71;100.00;98489.13;104791;1273;61321;-75
2022/09/25 13:00:41;;;;;;;;;;;;;;;17.62;100.00;98490.24;105128;1273;62462;-76
2022/09/25 13:03:22;;;;;;;;;;;;;;;17.51;100.00;98487.63;104952;1273;75887;-72
2022/09/25 13:05:55;;;;;;;;;;;;;;;17.40;100.00;98487.29;104993;1273;70366;-74
2022/09/25 13:08:26;;;;;;;;;;;;;;;17.30;100.00;98492.73;104977;1273;74196;-73